Time;durP1;ratioP1;P1;durP2;ratioP2;P2;SDS_P1;SDS_P2;PMS_P1;PMS_P2;Temp;Humidity;BMP_temperature;BMP_pressure;BME280_temperature;BME280_humidity;BME280_pressure;Samples;Min_cycle;Max_cycle;Signal;HPM_P1;HPM_P2
2022/03/01 00:01:27;;;;;;;4.70;3.07;;;3.70;99.90;;;;;;4976707;28;20465;-68
2022/03/01 00:03:54;;;;;;;5.07;3.10;;;3.70;99.90;;;;;;4976756;28;20528;-68
2022/03/01 00:06:20;;;;;;;7.90;4.03;;;3.70;99.90;;;;;;4975234;28;20473;-68
2022/03/01 00:08:47;;;;;;;3.87;3.37;;;3.60;99.90;;;;;;4980698;28;20611;-69
2022/03/01 00:11:16;;;;;;;4.10;2.73;;;3.60;99.90;;;;;;4975260;28;20853;-70
2022/03/01 00:13:47;;;;;;;14.73;4.07;;;3.50;99.90;;;;;;4974266;28;20999;-70
2022/03/01 00:16:15;;;;;;;6.60;3.63;;;3.50;99.90;;;;;;4969463;28;20622;-71
2022/03/01 00:18:42;;;;;;;9.83;4.50;;;3.60;99.90;;;;;;4973709;28;20465;-70
2022/03/01 00:21:08;;;;;;;10.53;4.20;;;3.60;99.90;;;;;;4967040;28;21261;-70
2022/03/01 00:23:35;;;;;;;11.27;5.23;;;3.60;99.90;;;;;;4970890;28;20481;-70
2022/03/01 00:26:02;;;;;;;6.13;3.60;;;3.60;99.90;;;;;;4971641;28;20504;-72
2022/03/01 00:28:29;;;;;;;18.00;4.03;;;3.60;99.90;;;;;;4976009;28;20436;-70
2022/03/01 00:30:56;;;;;;;4.90;3.20;;;3.70;99.90;;;;;;4971609;28;22039;-70
2022/03/01 00:33:26;;;;;;;3.70;2.83;;;3.70;99.90;;;;;;4977073;28;20709;-70
2022/03/01 00:35:52;;;;;;;6.80;3.30;;;3.70;99.90;;;;;;4973323;28;20485;-70
2022/03/01 00:38:19;;;;;;;4.73;4.23;;;3.60;99.90;;;;;;4973082;28;21209;-70
2022/03/01 00:40:46;;;;;;;9.43;4.60;;;3.50;99.90;;;;;;4974595;28;20445;-71
2022/03/01 00:43:13;;;;;;;8.77;4.37;;;3.60;99.90;;;;;;4971212;28;20444;-70
2022/03/01 00:45:40;;;;;;;23.20;4.93;;;3.50;99.90;;;;;;4971743;28;20719;-70
2022/03/01 00:48:06;;;;;;;6.83;4.13;;;3.40;99.90;;;;;;4970720;28;20558;-70
2022/03/01 00:50:35;;;;;;;5.07;3.67;;;3.40;99.90;;;;;;4974169;28;20526;-71
2022/03/01 00:53:01;;;;;;;6.47;3.40;;;3.30;99.90;;;;;;4973975;28;20461;-70
2022/03/01 00:55:28;;;;;;;5.17;3.00;;;3.30;99.90;;;;;;4977233;28;20611;-70
2022/03/01 00:57:55;;;;;;;4.53;3.57;;;3.10;99.90;;;;;;4985413;28;20443;-70
2022/03/01 01:00:22;;;;;;;5.20;3.43;;;3.10;99.90;;;;;;4980785;28;20918;-70
2022/03/01 01:02:49;;;;;;;6.47;3.13;;;3.20;99.90;;;;;;4977986;28;20569;-70
2022/03/01 01:05:16;;;;;;;6.40;3.67;;;3.20;99.90;;;;;;4977354;28;20457;-71
2022/03/01 01:07:44;;;;;;;24.13;4.90;;;3.10;99.90;;;;;;4983184;28;20551;-71
2022/03/01 01:10:11;;;;;;;7.23;4.73;;;3.20;99.90;;;;;;4982034;28;21017;-71
2022/03/01 01:12:40;;;;;;;6.13;3.50;;;3.20;99.90;;;;;;4977861;28;20439;-71
2022/03/01 01:15:08;;;;;;;5.47;3.60;;;3.20;99.90;;;;;;4975737;28;20436;-71
2022/03/01 01:17:35;;;;;;;7.03;4.20;;;3.30;99.90;;;;;;4975588;28;20498;-70
2022/03/01 01:20:03;;;;;;;6.50;3.67;;;3.20;99.90;;;;;;4975524;28;20477;-69
2022/03/01 01:22:42;;;;;;;16.97;5.63;;;3.20;99.90;;;;;;4967903;28;21187;-70
2022/03/01 01:25:13;;;;;;;3.50;3.20;;;3.20;99.90;;;;;;4974314;28;20472;-71
2022/03/01 01:27:42;;;;;;;5.67;4.10;;;3.20;99.90;;;;;;4975026;28;20535;-71
2022/03/01 01:30:10;;;;;;;11.83;6.83;;;3.10;99.90;;;;;;4973152;28;21077;-70
2022/03/01 01:32:37;;;;;;;8.80;5.30;;;3.00;99.90;;;;;;4977488;28;20439;-70
2022/03/01 01:35:05;;;;;;;6.17;4.30;;;2.90;99.90;;;;;;4977286;28;20956;-70
2022/03/01 01:37:32;;;;;;;3.90;3.57;;;2.80;99.90;;;;;;4974584;28;20524;-69
2022/03/01 01:39:59;;;;;;;6.30;3.27;;;2.90;99.90;;;;;;4974631;28;20554;-69
2022/03/01 01:42:30;;;;;;;11.13;6.27;;;2.60;99.90;;;;;;4975861;28;20527;-69
2022/03/01 01:44:56;;;;;;;9.40;4.10;;;2.60;99.90;;;;;;4979542;28;20469;-70
2022/03/01 01:47:23;;;;;;;6.10;5.13;;;2.60;99.90;;;;;;4975029;28;20547;-69
2022/03/01 01:49:50;;;;;;;5.70;3.90;;;2.70;99.90;;;;;;4976082;28;20944;-69
2022/03/01 01:52:17;;;;;;;4.27;3.47;;;2.70;99.90;;;;;;4974457;28;20550;-69
2022/03/01 01:54:44;;;;;;;6.77;5.07;;;2.70;99.90;;;;;;4975104;28;20551;-69
2022/03/01 01:57:14;;;;;;;4.23;3.57;;;2.80;99.90;;;;;;4976946;28;20998;-69
2022/03/01 01:59:43;;;;;;;9.20;5.83;;;2.80;99.90;;;;;;4976329;28;20465;-70
2022/03/01 02:02:12;;;;;;;5.23;4.77;;;2.60;99.90;;;;;;4978845;28;20560;-69
2022/03/01 02:04:38;;;;;;;3.60;3.30;;;2.60;99.90;;;;;;4975727;28;20452;-70
2022/03/01 02:07:06;;;;;;;7.50;4.33;;;2.60;99.90;;;;;;4975851;28;22008;-69
2022/03/01 02:09:33;;;;;;;7.07;3.33;;;2.60;99.90;;;;;;4976452;28;20718;-69
2022/03/01 02:12:00;;;;;;;6.70;4.50;;;2.60;99.90;;;;;;4973839;28;20443;-70
2022/03/01 02:14:26;;;;;;;6.30;5.80;;;2.50;99.90;;;;;;4979385;28;20554;-70
2022/03/01 02:16:54;;;;;;;6.43;5.03;;;2.50;99.90;;;;;;4975860;28;20854;-70
2022/03/01 02:19:21;;;;;;;9.67;5.07;;;2.60;99.90;;;;;;4976140;28;20848;-69
2022/03/01 02:21:51;;;;;;;9.27;4.03;;;2.70;99.90;;;;;;4977445;28;20469;-69
2022/03/01 02:24:19;;;;;;;11.97;7.57;;;2.70;99.90;;;;;;4974469;28;20471;-69
2022/03/01 02:26:46;;;;;;;8.43;4.57;;;2.70;99.90;;;;;;4972970;28;20642;-69
2022/03/01 02:29:13;;;;;;;5.60;3.57;;;2.70;99.90;;;;;;4973226;28;20566;-70
2022/03/01 02:31:40;;;;;;;8.47;4.63;;;2.60;99.90;;;;;;4974108;28;20448;-70
2022/03/01 02:34:07;;;;;;;6.33;5.10;;;2.60;99.90;;;;;;4981956;28;20520;-69
2022/03/01 02:36:33;;;;;;;6.60;4.90;;;2.50;99.90;;;;;;4972037;28;21468;-69
2022/03/01 02:39:02;;;;;;;16.57;6.60;;;2.60;99.90;;;;;;4980059;28;20494;-69
2022/03/01 02:41:28;;;;;;;11.83;6.87;;;2.60;99.90;;;;;;4976037;28;20978;-69
2022/03/01 02:43:55;;;;;;;7.27;4.70;;;2.60;99.90;;;;;;4976997;28;20465;-70
2022/03/01 02:46:21;;;;;;;7.80;5.40;;;2.50;99.90;;;;;;4972617;28;20523;-70
2022/03/01 02:48:48;;;;;;;15.47;8.93;;;2.50;99.90;;;;;;4976839;28;20553;-70
2022/03/01 02:51:15;;;;;;;11.03;4.83;;;2.70;99.90;;;;;;4974317;28;20924;-69
2022/03/01 02:53:42;;;;;;;6.57;5.00;;;2.70;99.90;;;;;;4977168;28;20469;-70
2022/03/01 02:56:10;;;;;;;17.03;6.90;;;2.70;99.90;;;;;;4975795;28;20573;-68
2022/03/01 02:58:37;;;;;;;20.33;6.10;;;2.80;99.90;;;;;;4974683;28;22605;-71
2022/03/01 03:01:03;;;;;;;5.53;4.03;;;2.80;99.90;;;;;;4976360;28;20848;-69
2022/03/01 03:03:30;;;;;;;16.03;6.23;;;2.90;99.90;;;;;;4974664;28;20520;-70
2022/03/01 03:05:59;;;;;;;9.17;5.60;;;2.90;99.90;;;;;;4976811;28;20907;-69
2022/03/01 03:08:26;;;;;;;9.80;5.27;;;2.80;99.90;;;;;;4978308;28;20463;-69
2022/03/01 03:10:53;;;;;;;5.37;4.50;;;2.70;99.90;;;;;;4980038;28;21229;-70
2022/03/01 03:13:21;;;;;;;8.00;4.10;;;2.60;99.90;;;;;;4980127;28;20839;-69
2022/03/01 03:15:49;;;;;;;6.63;5.93;;;2.80;99.90;;;;;;4983112;28;20496;-69
2022/03/01 03:18:15;;;;;;;7.73;4.83;;;2.80;99.90;;;;;;4977514;28;20534;-69
2022/03/01 03:20:42;;;;;;;10.10;5.63;;;2.70;99.90;;;;;;4979355;28;20526;-69
2022/03/01 03:23:09;;;;;;;12.40;5.10;;;2.70;99.90;;;;;;4978372;28;21001;-71
2022/03/01 03:25:36;;;;;;;10.50;5.00;;;2.80;99.90;;;;;;4977709;28;21013;-69
2022/03/01 03:28:04;;;;;;;17.00;7.10;;;2.80;99.90;;;;;;4977831;28;20966;-69
2022/03/01 03:30:32;;;;;;;9.67;5.97;;;2.80;99.90;;;;;;4981499;28;20461;-70
2022/03/01 03:32:58;;;;;;;14.63;6.77;;;2.80;99.90;;;;;;4979330;28;20524;-69
2022/03/01 03:35:25;;;;;;;10.63;5.10;;;2.70;99.90;;;;;;4979071;28;20455;-69
2022/03/01 03:37:52;;;;;;;10.87;5.43;;;2.60;99.90;;;;;;4979572;28;20469;-69
2022/03/01 03:40:19;;;;;;;10.20;6.00;;;2.80;99.90;;;;;;4979011;28;20703;-69
2022/03/01 03:42:46;;;;;;;5.63;3.70;;;2.80;99.90;;;;;;4979049;28;20959;-70
2022/03/01 03:45:14;;;;;;;14.50;7.37;;;2.80;99.90;;;;;;4981132;28;20457;-69
2022/03/01 03:47:43;;;;;;;9.90;5.60;;;2.60;99.90;;;;;;4977582;28;20673;-69
2022/03/01 03:50:10;;;;;;;7.67;5.23;;;2.50;99.90;;;;;;4977741;28;20830;-70
2022/03/01 03:52:37;;;;;;;7.20;4.63;;;2.40;99.90;;;;;;4978955;28;20531;-70
2022/03/01 03:55:05;;;;;;;9.07;5.60;;;2.40;99.90;;;;;;4978558;28;20512;-70
2022/03/01 03:57:33;;;;;;;12.50;4.67;;;2.30;99.90;;;;;;4976269;28;20474;-70
2022/03/01 04:00:00;;;;;;;7.63;5.67;;;2.40;99.90;;;;;;4979880;28;20514;-69
2022/03/01 04:02:27;;;;;;;15.10;5.70;;;2.40;99.90;;;;;;4976203;28;20447;-70
2022/03/01 04:04:56;;;;;;;13.80;4.70;;;2.40;99.90;;;;;;4974694;28;20523;-70
2022/03/01 04:07:22;;;;;;;9.47;4.80;;;2.40;99.90;;;;;;4980996;28;20489;-69
2022/03/01 04:09:49;;;;;;;4.50;3.80;;;2.40;99.90;;;;;;4976935;28;20441;-69
2022/03/01 04:12:16;;;;;;;11.47;5.37;;;2.50;99.90;;;;;;4967152;28;21238;-70
2022/03/01 04:14:43;;;;;;;11.10;6.13;;;2.40;99.90;;;;;;4973315;28;20444;-72
2022/03/01 04:17:10;;;;;;;6.90;4.70;;;2.40;99.90;;;;;;4977414;28;23087;-70
2022/03/01 04:19:37;;;;;;;5.10;4.30;;;2.50;99.90;;;;;;4978091;28;20546;-71
2022/03/01 04:22:06;;;;;;;7.57;4.23;;;2.50;99.90;;;;;;4978832;28;20510;-70
2022/03/01 04:24:33;;;;;;;7.13;3.90;;;2.50;99.90;;;;;;4976428;28;20457;-70
2022/03/01 04:26:59;;;;;;;7.23;6.63;;;2.60;99.90;;;;;;4975374;28;22037;-71
2022/03/01 04:29:26;;;;;;;11.93;4.87;;;2.40;99.90;;;;;;4969766;28;20458;-70
2022/03/01 04:31:53;;;;;;;9.17;5.33;;;2.50;99.90;;;;;;4973123;28;20522;-70
2022/03/01 04:34:20;;;;;;;9.57;5.23;;;2.60;99.90;;;;;;4972570;28;20443;-70
2022/03/01 04:36:46;;;;;;;6.17;3.87;;;2.60;99.90;;;;;;4974967;28;20948;-70
2022/03/01 04:39:14;;;;;;;10.93;4.67;;;2.60;99.90;;;;;;4974609;28;20436;-69
2022/03/01 04:41:42;;;;;;;5.83;4.43;;;2.60;99.90;;;;;;4974639;28;20469;-69
2022/03/01 04:44:08;;;;;;;15.53;5.80;;;2.40;99.90;;;;;;4970506;28;20542;-71
2022/03/01 04:46:35;;;;;;;12.37;4.67;;;2.40;99.90;;;;;;4973860;28;20583;-70
2022/03/01 04:49:03;;;;;;;8.60;5.80;;;2.40;99.90;;;;;;4967238;28;20465;-70
2022/03/01 04:51:30;;;;;;;7.47;4.20;;;2.50;99.90;;;;;;4975496;28;20461;-69
2022/03/01 04:53:57;;;;;;;7.10;4.83;;;2.50;99.90;;;;;;4973263;28;20497;-69
2022/03/01 04:56:25;;;;;;;10.33;5.40;;;2.50;99.90;;;;;;4974922;28;21014;-69
2022/03/01 04:58:52;;;;;;;6.93;5.10;;;2.60;99.90;;;;;;4977802;28;20500;-69
2022/03/01 05:01:19;;;;;;;7.90;5.27;;;2.70;99.90;;;;;;4980121;28;20937;-70
2022/03/01 05:03:45;;;;;;;5.30;3.57;;;2.50;99.90;;;;;;4978952;28;20466;-70
2022/03/01 05:06:12;;;;;;;12.97;7.07;;;2.50;99.90;;;;;;4974383;28;20529;-70
2022/03/01 05:08:39;;;;;;;7.00;4.87;;;2.60;99.90;;;;;;4982619;28;20539;-70
2022/03/01 05:11:06;;;;;;;6.50;4.70;;;2.70;99.90;;;;;;4975395;28;20497;-70
2022/03/01 05:13:33;;;;;;;4.83;3.13;;;2.70;99.90;;;;;;4973137;28;20496;-70
2022/03/01 05:16:00;;;;;;;8.17;4.27;;;2.60;99.90;;;;;;4974538;28;20557;-70
2022/03/01 05:18:27;;;;;;;7.37;4.10;;;2.50;99.90;;;;;;4972421;28;20471;-70
2022/03/01 05:20:54;;;;;;;3.60;3.20;;;2.60;99.90;;;;;;4964617;28;20484;-69
2022/03/01 05:23:21;;;;;;;4.70;4.07;;;2.60;99.90;;;;;;4979965;28;20528;-70
2022/03/01 05:25:48;;;;;;;8.63;4.90;;;2.50;99.90;;;;;;4982731;28;20544;-70
2022/03/01 05:28:15;;;;;;;5.30;4.07;;;2.50;99.90;;;;;;4976168;28;20582;-69
2022/03/01 05:30:43;;;;;;;7.87;5.07;;;2.50;99.90;;;;;;4974724;28;20571;-69
2022/03/01 05:33:09;;;;;;;10.53;5.13;;;2.40;99.90;;;;;;4977793;28;20451;-70
2022/03/01 05:35:36;;;;;;;5.27;3.80;;;2.50;99.90;;;;;;4980189;28;20485;-69
2022/03/01 05:38:03;;;;;;;5.93;3.70;;;2.50;99.90;;;;;;4970683;28;20603;-70
2022/03/01 05:40:31;;;;;;;5.53;3.77;;;2.50;99.90;;;;;;4976280;28;20657;-69
2022/03/01 05:42:59;;;;;;;5.70;4.53;;;2.50;99.90;;;;;;4980714;28;20535;-70
2022/03/01 05:45:26;;;;;;;8.67;6.70;;;2.60;99.90;;;;;;4976462;28;20540;-70
2022/03/01 05:47:56;;;;;;;5.63;4.23;;;2.60;99.90;;;;;;4985911;28;20505;-69
2022/03/01 05:50:23;;;;;;;14.17;5.33;;;2.50;99.90;;;;;;4979252;28;20444;-70
2022/03/01 05:52:50;;;;;;;10.03;5.20;;;2.60;99.90;;;;;;4984013;28;20447;-70
2022/03/01 05:55:18;;;;;;;7.83;5.50;;;2.60;99.90;;;;;;4987396;28;20848;-69
2022/03/01 05:57:44;;;;;;;10.43;4.53;;;2.60;99.90;;;;;;4988675;28;20547;-69
2022/03/01 06:00:14;;;;;;;14.00;6.70;;;2.70;99.90;;;;;;4988246;28;20538;-69
2022/03/01 06:02:41;;;;;;;14.13;5.20;;;2.80;99.90;;;;;;4988811;28;21028;-70
2022/03/01 06:05:11;;;;;;;6.70;4.23;;;2.70;99.90;;;;;;4983741;28;20571;-69
2022/03/01 06:07:38;;;;;;;12.80;5.47;;;2.80;99.90;;;;;;4986910;28;20965;-69
2022/03/01 06:10:06;;;;;;;16.93;5.30;;;2.90;99.90;;;;;;4990326;28;20439;-69
2022/03/01 06:12:33;;;;;;;5.87;5.37;;;2.80;99.90;;;;;;4988969;28;20542;-69
2022/03/01 06:15:00;;;;;;;9.13;5.90;;;2.80;99.90;;;;;;4989181;28;21048;-69
2022/03/01 06:17:26;;;;;;;8.20;4.50;;;2.80;99.90;;;;;;4986477;28;20503;-69
2022/03/01 06:19:53;;;;;;;13.20;5.80;;;2.80;99.90;;;;;;4985603;28;20463;-69
2022/03/01 06:22:21;;;;;;;6.10;5.40;;;2.90;99.90;;;;;;4988029;28;20473;-69
2022/03/01 06:24:48;;;;;;;6.53;4.70;;;2.70;99.90;;;;;;4985894;28;21062;-69
2022/03/01 06:27:15;;;;;;;12.40;5.70;;;2.70;99.90;;;;;;4986714;28;20492;-69
2022/03/01 06:29:42;;;;;;;7.47;3.90;;;2.80;99.90;;;;;;4986846;28;20454;-69
2022/03/01 06:32:09;;;;;;;12.40;7.03;;;3.00;99.90;;;;;;4986604;28;20562;-69
2022/03/01 06:34:36;;;;;;;9.63;5.40;;;3.20;99.90;;;;;;4986934;28;20432;-69
2022/03/01 06:37:03;;;;;;;6.83;5.77;;;3.40;99.90;;;;;;4986522;28;20568;-70
2022/03/01 06:39:32;;;;;;;7.30;6.20;;;3.60;99.90;;;;;;4984767;28;20527;-70
2022/03/01 06:41:59;;;;;;;15.33;4.80;;;3.80;99.90;;;;;;4985003;28;20470;-70
2022/03/01 06:44:26;;;;;;;10.70;4.30;;;4.00;99.90;;;;;;4986218;28;21043;-70
2022/03/01 06:46:52;;;;;;;7.83;5.53;;;4.10;99.90;;;;;;4984902;28;20799;-70
2022/03/01 06:49:19;;;;;;;10.13;5.77;;;4.30;99.90;;;;;;4986960;28;20994;-70
2022/03/01 06:51:46;;;;;;;8.90;5.40;;;4.40;99.90;;;;;;4988691;28;20454;-70
2022/03/01 06:54:12;;;;;;;9.20;4.83;;;4.40;99.90;;;;;;4988074;28;20445;-70
2022/03/01 06:56:40;;;;;;;10.30;5.23;;;4.30;99.90;;;;;;4989156;28;20543;-69
2022/03/01 06:59:07;;;;;;;11.17;5.60;;;4.30;99.90;;;;;;4987108;28;20470;-69
2022/03/01 07:01:34;;;;;;;6.80;4.53;;;4.20;99.90;;;;;;4987345;28;20571;-69
2022/03/01 07:04:00;;;;;;;7.83;5.80;;;4.50;99.90;;;;;;4984319;28;20440;-69
2022/03/01 07:06:27;;;;;;;12.27;5.00;;;4.60;99.90;;;;;;4983398;28;20550;-69
2022/03/01 07:08:53;;;;;;;11.43;6.33;;;4.80;99.90;;;;;;4985522;28;20467;-69
2022/03/01 07:11:22;;;;;;;13.97;7.63;;;5.10;99.90;;;;;;4985996;28;20436;-69
2022/03/01 07:13:50;;;;;;;10.17;5.43;;;5.10;99.90;;;;;;4984312;28;20443;-69
2022/03/01 07:16:17;;;;;;;7.70;5.67;;;5.00;99.90;;;;;;4984421;28;20479;-69
2022/03/01 07:18:44;;;;;;;6.23;5.60;;;5.10;99.90;;;;;;4987046;28;20554;-69
2022/03/01 07:21:11;;;;;;;12.10;6.00;;;5.00;99.90;;;;;;4982552;28;20604;-69
2022/03/01 07:23:39;;;;;;;11.87;7.17;;;4.90;99.90;;;;;;4984223;28;20503;-69
2022/03/01 07:26:06;;;;;;;34.70;8.23;;;5.00;99.90;;;;;;4984874;28;20468;-69
2022/03/01 07:28:32;;;;;;;6.63;4.97;;;5.10;99.90;;;;;;4985856;28;21418;-69
2022/03/01 07:31:00;;;;;;;10.50;5.73;;;5.10;99.90;;;;;;4986269;28;20530;-70
2022/03/01 07:33:27;;;;;;;11.33;7.40;;;5.10;99.90;;;;;;4985965;28;20559;-70
2022/03/01 07:35:54;;;;;;;8.57;5.73;;;5.00;99.90;;;;;;4985342;28;21081;-70
2022/03/01 07:38:21;;;;;;;16.23;6.87;;;5.00;99.90;;;;;;4985368;28;20472;-70
2022/03/01 07:40:47;;;;;;;10.67;6.90;;;4.90;99.90;;;;;;4984921;28;20461;-70
2022/03/01 07:43:14;;;;;;;10.10;5.40;;;4.80;99.90;;;;;;4985365;28;21140;-70
2022/03/01 07:45:41;;;;;;;11.73;6.47;;;4.90;99.90;;;;;;4984478;28;21026;-69
2022/03/01 07:48:10;;;;;;;15.33;5.70;;;4.80;99.90;;;;;;4984186;28;20951;-70
2022/03/01 07:50:37;;;;;;;18.67;8.93;;;5.00;99.90;;;;;;4982894;28;20445;-69
2022/03/01 07:53:04;;;;;;;14.63;7.27;;;5.20;99.90;;;;;;4986392;28;20440;-70
2022/03/01 07:55:31;;;;;;;18.10;7.07;;;5.30;99.90;;;;;;4984819;28;20883;-70
2022/03/01 07:57:57;;;;;;;9.43;5.93;;;5.50;99.90;;;;;;4986034;28;21087;-70
2022/03/01 08:00:25;;;;;;;10.13;5.03;;;5.60;99.90;;;;;;4987073;28;20442;-69
2022/03/01 08:02:52;;;;;;;12.90;7.93;;;5.80;99.90;;;;;;4987885;28;20941;-70
2022/03/01 08:05:20;;;;;;;10.20;5.70;;;6.00;99.90;;;;;;4981518;28;20954;-71
2022/03/01 08:07:46;;;;;;;10.00;6.47;;;6.10;99.90;;;;;;4985604;28;21025;-70
2022/03/01 08:10:13;;;;;;;10.70;5.90;;;6.10;99.90;;;;;;4984595;28;21225;-70
2022/03/01 08:12:40;;;;;;;15.20;7.40;;;6.40;99.90;;;;;;4984963;28;20467;-70
2022/03/01 08:15:07;;;;;;;18.47;7.90;;;6.60;99.90;;;;;;4983774;28;20469;-70
2022/03/01 08:17:34;;;;;;;13.53;7.27;;;6.90;99.90;;;;;;4985832;28;20469;-70
2022/03/01 08:20:01;;;;;;;10.57;6.80;;;6.90;99.90;;;;;;4980439;28;20436;-71
2022/03/01 08:22:29;;;;;;;28.07;9.37;;;7.30;99.90;;;;;;4983860;28;20461;-69
2022/03/01 08:24:56;;;;;;;11.90;7.00;;;7.50;99.90;;;;;;4982802;28;20863;-69
2022/03/01 08:27:22;;;;;;;18.47;8.20;;;7.50;99.90;;;;;;4985538;28;20456;-69
2022/03/01 08:29:49;;;;;;;8.50;5.60;;;7.90;99.90;;;;;;4983891;28;20436;-69
2022/03/01 08:32:15;;;;;;;16.33;8.70;;;8.30;99.90;;;;;;4985827;28;20547;-69
2022/03/01 08:34:42;;;;;;;13.87;5.37;;;8.40;99.90;;;;;;4983965;28;20461;-70
2022/03/01 08:37:09;;;;;;;9.87;6.37;;;8.80;99.90;;;;;;4985619;28;20892;-69
2022/03/01 08:39:37;;;;;;;12.07;7.20;;;9.20;99.90;;;;;;4983420;28;20589;-70
2022/03/01 08:42:04;;;;;;;16.73;7.93;;;10.00;99.90;;;;;;4983900;28;20978;-69
2022/03/01 08:44:30;;;;;;;8.53;6.30;;;10.40;99.90;;;;;;4984589;28;20477;-69
2022/03/01 08:46:57;;;;;;;9.33;6.20;;;10.90;99.90;;;;;;4984742;28;20460;-69
2022/03/01 08:49:24;;;;;;;18.50;6.93;;;11.90;98.90;;;;;;4985619;28;20725;-69
2022/03/01 08:51:50;;;;;;;13.93;5.87;;;12.60;95.40;;;;;;4984227;28;20460;-70
2022/03/01 08:54:18;;;;;;;8.30;7.03;;;12.80;91.40;;;;;;4984197;28;20570;-70
2022/03/01 08:56:46;;;;;;;12.20;6.63;;;13.70;88.40;;;;;;4983061;28;20488;-69
2022/03/01 08:59:12;;;;;;;15.83;8.20;;;13.90;81.00;;;;;;4984014;28;20489;-69
2022/03/01 09:01:39;;;;;;;16.30;6.43;;;14.20;75.80;;;;;;4985871;28;20583;-69
2022/03/01 09:04:06;;;;;;;16.60;7.77;;;14.40;73.40;;;;;;4983534;28;21031;-70
2022/03/01 09:06:32;;;;;;;8.67;6.53;;;14.30;66.50;;;;;;4982837;28;20576;-70
2022/03/01 09:08:59;;;;;;;18.43;7.47;;;14.10;66.90;;;;;;4984308;28;20971;-70
2022/03/01 09:11:26;;;;;;;10.60;6.73;;;13.40;64.70;;;;;;4983679;28;20535;-70
2022/03/01 09:13:54;;;;;;;9.10;6.70;;;13.40;65.00;;;;;;4985414;28;20911;-70
2022/03/01 09:16:21;;;;;;;9.83;5.77;;;13.80;62.50;;;;;;4987201;28;20555;-69
2022/03/01 09:18:47;;;;;;;6.93;4.60;;;13.70;60.80;;;;;;4988736;28;20539;-69
2022/03/01 09:21:15;;;;;;;5.80;4.17;;;13.80;57.80;;;;;;4985546;28;20465;-70
2022/03/01 09:23:42;;;;;;;24.00;7.10;;;13.60;56.40;;;;;;4986256;28;21340;-69
2022/03/01 09:26:09;;;;;;;6.13;4.07;;;13.60;55.40;;;;;;4986760;28;20547;-69
2022/03/01 09:28:35;;;;;;;6.43;3.93;;;13.20;55.50;;;;;;4988414;28;20461;-69
2022/03/01 09:31:04;;;;;;;6.17;3.80;;;13.20;54.60;;;;;;4987997;28;20462;-69
2022/03/01 09:33:31;;;;;;;9.77;4.77;;;13.00;55.20;;;;;;4988082;28;20472;-69
2022/03/01 09:35:57;;;;;;;5.70;4.50;;;13.50;55.20;;;;;;4988369;28;20582;-69
2022/03/01 09:38:26;;;;;;;6.53;4.63;;;13.50;52.10;;;;;;4987835;28;21211;-69
2022/03/01 09:40:53;;;;;;;6.17;3.47;;;13.00;52.50;;;;;;4986590;28;20776;-69
2022/03/01 09:43:21;;;;;;;5.77;3.70;;;12.20;52.30;;;;;;4988957;28;20531;-69
2022/03/01 09:45:47;;;;;;;7.77;3.97;;;12.20;53.80;;;;;;4984718;28;20477;-69
2022/03/01 09:48:15;;;;;;;3.70;3.27;;;12.10;52.80;;;;;;4988369;28;20563;-70
2022/03/01 09:50:43;;;;;;;4.60;3.53;;;12.20;52.10;;;;;;4988882;28;21537;-70
2022/03/01 09:53:09;;;;;;;8.20;4.27;;;12.00;52.00;;;;;;4990004;28;20469;-70
2022/03/01 09:55:36;;;;;;;6.13;3.97;;;12.00;52.80;;;;;;4989887;28;20508;-70
2022/03/01 09:58:03;;;;;;;6.53;3.70;;;12.20;52.70;;;;;;4990611;28;20461;-69
2022/03/01 10:00:30;;;;;;;11.23;4.07;;;12.00;53.50;;;;;;4989982;28;20484;-70
2022/03/01 10:02:59;;;;;;;4.87;3.17;;;12.00;53.90;;;;;;4990758;28;20471;-70
2022/03/01 10:05:36;;;;;;;12.10;4.20;;;12.20;52.50;;;;;;4980113;28;20463;-70
2022/03/01 10:08:11;;;;;;;8.07;4.07;;;12.40;52.40;;;;;;4987565;28;21012;-69
2022/03/01 10:10:40;;;;;;;7.80;4.83;;;12.60;52.60;;;;;;4988671;28;20484;-70
2022/03/01 10:13:07;;;;;;;4.77;4.20;;;12.60;51.70;;;;;;4988424;28;20982;-70
2022/03/01 10:15:34;;;;;;;7.50;3.63;;;12.70;52.90;;;;;;4988325;28;21235;-70
2022/03/01 10:18:10;;;;;;;7.10;4.50;;;13.40;51.20;;;;;;4987633;28;20950;-70
2022/03/01 10:20:40;;;;;;;5.27;3.67;;;14.30;50.30;;;;;;4985176;28;20470;-69
2022/03/01 10:23:07;;;;;;;7.73;5.10;;;14.80;48.80;;;;;;4984531;28;20984;-70
2022/03/01 10:25:35;;;;;;;5.10;4.03;;;14.80;48.20;;;;;;4986723;28;20834;-70
2022/03/01 10:28:03;;;;;;;5.40;4.30;;;14.50;48.60;;;;;;4988910;28;21560;-71
2022/03/01 10:30:31;;;;;;;5.77;4.00;;;14.60;48.30;;;;;;4988113;28;20461;-70
2022/03/01 10:33:08;;;;;;;5.67;4.00;;;14.80;49.80;;;;;;4988199;28;20465;-70
2022/03/01 10:35:36;;;;;;;7.53;4.40;;;14.80;48.40;;;;;;4990449;28;20481;-70
2022/03/01 10:38:04;;;;;;;9.97;4.53;;;15.70;49.40;;;;;;4986676;28;20477;-70
2022/03/01 10:40:32;;;;;;;2.63;1.60;;;15.30;46.40;;;;;;4987712;28;20563;-70
2022/03/01 10:43:01;;;;;;;6.00;3.00;;;14.60;46.10;;;;;;4987161;28;20496;-71
2022/03/01 10:45:36;;;;;;;6.80;4.40;;;13.90;46.70;;;;;;4985898;28;20547;-71
2022/03/01 10:48:04;;;;;;;8.37;3.50;;;13.20;47.10;;;;;;4985633;28;20472;-71
2022/03/01 10:50:30;;;;;;;10.47;4.93;;;13.00;48.00;;;;;;4985930;28;20511;-69
2022/03/01 10:52:57;;;;;;;6.10;4.37;;;13.00;48.10;;;;;;4986865;28;20469;-69
2022/03/01 10:55:28;;;;;;;5.87;5.30;;;13.20;49.30;;;;;;4987331;28;20508;-69
2022/03/01 10:58:07;;;;;;;6.53;3.73;;;13.40;49.80;;;;;;4988786;28;21073;-69
2022/03/01 11:00:35;;;;;;;21.20;4.30;;;13.80;49.10;;;;;;4985607;28;20463;-70
2022/03/01 11:03:03;;;;;;;8.77;5.60;;;14.00;49.50;;;;;;4985605;28;21095;-70
2022/03/01 11:05:31;;;;;;;2.97;2.67;;;14.30;49.50;;;;;;4983094;28;20856;-69
2022/03/01 11:08:01;;;;;;;7.80;3.10;;;14.30;47.50;;;;;;4986318;28;20576;-69
2022/03/01 11:10:31;;;;;;;5.43;3.73;;;14.10;48.30;;;;;;4986048;28;20571;-71
2022/03/01 11:13:02;;;;;;;6.83;3.87;;;13.80;48.10;;;;;;4988286;28;20629;-71
2022/03/01 11:15:42;;;;;;;7.43;3.80;;;13.70;48.20;;;;;;4987975;28;20495;-71
2022/03/01 11:18:22;;;;;;;8.77;4.80;;;13.90;48.80;;;;;;4987428;28;21390;-71
2022/03/01 11:20:51;;;;;;;8.20;3.57;;;14.30;48.00;;;;;;4985356;28;20481;-70
2022/03/01 11:23:23;;;;;;;8.47;3.83;;;14.60;48.00;;;;;;4986346;28;21057;-70
2022/03/01 11:25:53;;;;;;;7.93;3.40;;;14.60;47.20;;;;;;4986390;28;20513;-69
2022/03/01 11:28:29;;;;;;;5.37;3.40;;;14.00;47.10;;;;;;4985442;28;20619;-70
2022/03/01 11:30:56;;;;;;;4.37;3.00;;;13.90;47.10;;;;;;4986831;28;20902;-70
2022/03/01 11:33:27;;;;;;;4.97;3.40;;;14.00;48.00;;;;;;4986095;28;20507;-70
2022/03/01 11:35:56;;;;;;;6.40;4.80;;;13.60;48.20;;;;;;4983758;28;20533;-70
2022/03/01 11:38:28;;;;;;;6.70;3.77;;;13.40;47.90;;;;;;4985036;28;20460;-71
2022/03/01 11:41:09;;;;;;;6.87;3.37;;;13.00;48.30;;;;;;4987338;28;20782;-71
2022/03/01 11:43:38;;;;;;;11.70;4.10;;;13.30;49.10;;;;;;4986359;28;20431;-69
2022/03/01 11:46:15;;;;;;;7.60;4.53;;;13.60;49.10;;;;;;4985527;28;21266;-69
2022/03/01 11:48:46;;;;;;;12.80;6.27;;;14.00;48.70;;;;;;4985631;28;20467;-70
2022/03/01 11:51:13;;;;;;;6.20;3.60;;;14.00;48.00;;;;;;4984671;28;20470;-70
2022/03/01 11:53:44;;;;;;;12.40;4.73;;;14.00;48.20;;;;;;4981739;28;20648;-70
2022/03/01 11:56:13;;;;;;;14.00;4.40;;;14.30;48.60;;;;;;4987370;28;21161;-70
2022/03/01 11:58:40;;;;;;;7.30;3.80;;;14.50;48.90;;;;;;4988194;28;20461;-70
2022/03/01 12:01:08;;;;;;;6.23;3.63;;;14.70;48.40;;;;;;4989550;28;20492;-70
2022/03/01 12:03:37;;;;;;;8.53;4.23;;;15.20;48.50;;;;;;4986992;28;20620;-70
2022/03/01 12:06:05;;;;;;;10.67;4.00;;;15.40;47.40;;;;;;4984055;28;20975;-69
2022/03/01 12:08:32;;;;;;;8.60;5.40;;;15.60;47.50;;;;;;4985474;28;21064;-70
2022/03/01 12:11:06;;;;;;;6.60;4.23;;;15.70;47.10;;;;;;4985153;28;20459;-70
2022/03/01 12:13:39;;;;;;;7.83;4.00;;;15.40;46.50;;;;;;4981402;28;20984;-70
2022/03/01 12:16:07;;;;;;;7.13;5.07;;;15.50;47.30;;;;;;4984613;28;20493;-70
2022/03/01 12:18:36;;;;;;;7.40;4.70;;;15.90;48.50;;;;;;4984808;28;20469;-70
2022/03/01 12:21:05;;;;;;;9.23;4.80;;;15.80;47.00;;;;;;4982920;28;20967;-69
2022/03/01 12:23:33;;;;;;;6.93;4.70;;;15.30;47.60;;;;;;4984325;28;20468;-70
2022/03/01 12:26:01;;;;;;;11.53;4.40;;;15.40;47.90;;;;;;4985009;28;20578;-70
2022/03/01 12:28:36;;;;;;;9.10;4.80;;;15.40;47.50;;;;;;4987061;28;20470;-69
2022/03/01 12:31:09;;;;;;;9.63;4.53;;;15.20;46.70;;;;;;4986177;28;22373;-72
2022/03/01 12:33:36;;;;;;;7.30;4.00;;;14.70;47.50;;;;;;4985096;28;20597;-70
2022/03/01 12:36:04;;;;;;;9.40;6.10;;;14.50;47.40;;;;;;4985660;28;20567;-70
2022/03/01 12:38:32;;;;;;;12.93;6.10;;;14.00;48.50;;;;;;4985744;28;21079;-71
2022/03/01 12:41:08;;;;;;;8.60;3.77;;;14.00;48.40;;;;;;4984732;28;20495;-71
2022/03/01 12:43:35;;;;;;;4.27;3.70;;;13.80;47.80;;;;;;4986810;28;21208;-70
2022/03/01 12:46:01;;;;;;;5.23;3.70;;;13.40;48.30;;;;;;4984399;28;20492;-70
2022/03/01 12:48:29;;;;;;;6.40;2.87;;;13.20;48.30;;;;;;4985488;28;20461;-71
2022/03/01 12:50:56;;;;;;;6.10;4.50;;;13.10;48.50;;;;;;4990153;28;20571;-70
2022/03/01 12:53:23;;;;;;;6.03;4.23;;;13.10;48.40;;;;;;4990940;28;20600;-69